Time;durP1;ratioP1;P1;durP2;ratioP2;P2;SDS_P1;SDS_P2;PMS_P1;PMS_P2;Temp;Humidity;BMP_temperature;BMP_pressure;BME280_temperature;BME280_humidity;BME280_pressure;Samples;Min_cycle;Max_cycle;Signal;HPM_P1;HPM_P2
2021/01/15 00:01:38;;;;;;;4.20;3.08;;;8.20;80.00;;;;;;5083856;28;20059;-42
2021/01/15 00:04:04;;;;;;;3.42;2.90;;;8.20;80.00;;;;;;5087590;28;20040;-46
2021/01/15 00:06:30;;;;;;;3.80;3.15;;;8.20;80.00;;;;;;5084911;28;20067;-43
2021/01/15 00:08:57;;;;;;;4.00;2.78;;;8.20;80.00;;;;;;5083949;28;20047;-42
2021/01/15 00:11:30;;;;;;;3.33;2.97;;;8.20;80.00;;;;;;5083759;28;20048;-42
2021/01/15 00:13:57;;;;;;;3.78;3.13;;;8.20;80.00;;;;;;5086410;28;20055;-44
2021/01/15 00:16:27;;;;;;;3.85;3.10;;;8.20;80.00;;;;;;5083676;28;20044;-42
2021/01/15 00:18:56;;;;;;;3.85;2.80;;;8.20;80.00;;;;;;5084108;28;20507;-42
2021/01/15 00:21:23;;;;;;;3.55;2.90;;;8.20;80.00;;;;;;5085498;28;20112;-43
2021/01/15 00:23:51;;;;;;;3.72;3.08;;;8.20;80.00;;;;;;5086528;28;20492;-43
2021/01/15 00:26:18;;;;;;;4.68;3.25;;;8.20;80.00;;;;;;5086011;28;20091;-44
2021/01/15 00:28:46;;;;;;;3.53;2.90;;;8.20;80.00;;;;;;5084120;28;20044;-42
2021/01/15 00:31:12;;;;;;;3.90;2.85;;;8.20;80.00;;;;;;5083859;28;20059;-43
2021/01/15 00:33:38;;;;;;;3.47;3.17;;;8.20;80.00;;;;;;5085507;28;20056;-41
2021/01/15 00:36:05;;;;;;;3.20;2.90;;;8.20;80.00;;;;;;5084985;28;20044;-44
2021/01/15 00:38:31;;;;;;;4.30;3.15;;;8.20;80.00;;;;;;5084438;28;20072;-42
2021/01/15 00:41:06;;;;;;;3.55;2.90;;;8.20;80.00;;;;;;5083418;28;20040;-42
2021/01/15 00:43:32;;;;;;;3.60;3.20;;;8.20;80.00;;;;;;5084632;28;20055;-43
2021/01/15 00:45:58;;;;;;;4.80;3.20;;;8.20;80.00;;;;;;5084022;28;20056;-42
2021/01/15 00:48:24;;;;;;;3.55;2.83;;;8.20;80.00;;;;;;5083406;28;20044;-42
2021/01/15 00:50:50;;;;;;;3.58;3.00;;;8.20;80.00;;;;;;5084078;28;20454;-45
2021/01/15 00:53:16;;;;;;;4.30;3.20;;;8.20;80.00;;;;;;5085161;28;20056;-41
2021/01/15 00:55:42;;;;;;;3.13;2.83;;;8.20;80.00;;;;;;5083780;28;20139;-43
2021/01/15 00:58:14;;;;;;;3.45;3.15;;;8.20;80.00;;;;;;5084359;28;20075;-42
2021/01/15 01:00:40;;;;;;;3.58;2.85;;;8.20;80.00;;;;;;5084683;28;20139;-41
2021/01/15 01:03:07;;;;;;;4.57;3.58;;;8.20;80.00;;;;;;5083240;28;20403;-43
2021/01/15 01:05:34;;;;;;;4.22;2.95;;;8.20;80.00;;;;;;5083427;28;20051;-43
2021/01/15 01:07:59;;;;;;;3.85;3.00;;;8.20;80.00;;;;;;5083819;28;20079;-43
2021/01/15 01:10:25;;;;;;;4.25;3.50;;;8.20;80.00;;;;;;5084184;28;20460;-44
2021/01/15 01:12:51;;;;;;;3.13;2.83;;;8.20;80.00;;;;;;5084040;28;20044;-45
2021/01/15 01:15:16;;;;;;;3.40;3.10;;;8.20;80.00;;;;;;5082716;28;20381;-43
2021/01/15 01:17:42;;;;;;;3.72;3.22;;;8.20;80.00;;;;;;5083589;28;20127;-47
2021/01/15 01:20:10;;;;;;;3.75;2.95;;;8.20;80.00;;;;;;5083847;28;20040;-44
2021/01/15 01:22:39;;;;;;;4.53;3.85;;;8.20;80.00;;;;;;5084157;28;20489;-43
2021/01/15 01:25:07;;;;;;;3.88;3.28;;;8.20;80.00;;;;;;5082622;28;20063;-42
2021/01/15 01:27:33;;;;;;;4.18;3.40;;;8.20;80.00;;;;;;5084491;28;20048;-42
2021/01/15 01:29:59;;;;;;;4.38;3.53;;;8.20;80.00;;;;;;5083933;28;20044;-44
2021/01/15 01:32:24;;;;;;;3.35;2.83;;;8.20;80.00;;;;;;5082265;28;20051;-44
2021/01/15 01:34:50;;;;;;;4.35;3.65;;;8.20;80.00;;;;;;5083273;28;20044;-46
2021/01/15 01:37:16;;;;;;;4.57;3.20;;;8.20;80.00;;;;;;5084027;28;20052;-45
2021/01/15 01:39:42;;;;;;;4.13;2.85;;;8.10;80.00;;;;;;5083498;28;20044;-42
2021/01/15 01:42:08;;;;;;;4.47;3.60;;;8.20;80.00;;;;;;5082187;28;20058;-45
2021/01/15 01:44:34;;;;;;;3.63;3.33;;;8.20;80.00;;;;;;5082423;28;20459;-42
2021/01/15 01:47:00;;;;;;;3.40;3.10;;;8.20;80.00;;;;;;5083850;28;20071;-42
2021/01/15 01:49:26;;;;;;;3.75;2.97;;;8.20;80.00;;;;;;5082876;28;20047;-43
2021/01/15 01:51:53;;;;;;;3.75;3.20;;;8.20;79.90;;;;;;5083219;28;20052;-45
2021/01/15 01:54:19;;;;;;;4.07;2.80;;;8.20;79.90;;;;;;5063105;28;20040;-43
2021/01/15 01:56:44;;;;;;;3.97;3.30;;;8.20;80.00;;;;;;5083824;28;20062;-44
2021/01/15 01:59:13;;;;;;;3.92;3.47;;;8.10;79.90;;;;;;5082409;28;20477;-41
2021/01/15 02:01:39;;;;;;;3.90;3.30;;;8.20;79.90;;;;;;5083972;28;20070;-43
2021/01/15 02:04:06;;;;;;;4.15;3.15;;;8.20;79.90;;;;;;5082162;28;20047;-42
2021/01/15 02:06:32;;;;;;;3.20;2.75;;;8.10;79.90;;;;;;5082432;28;20044;-44
2021/01/15 02:08:58;;;;;;;5.25;3.47;;;8.20;80.00;;;;;;5083714;28;20122;-42
2021/01/15 02:11:57;;;;;;;3.67;3.15;;;8.20;79.90;;;;;;5083024;28;20116;-42
2021/01/15 02:14:39;;;;;;;3.08;2.75;;;8.20;79.90;;;;;;5081547;28;20041;-44
2021/01/15 02:17:08;;;;;;;4.22;3.20;;;8.20;80.00;;;;;;5081521;28;20548;-41
2021/01/15 02:19:46;;;;;;;3.45;3.00;;;8.10;79.90;;;;;;5081902;28;20040;-42
2021/01/15 02:22:30;;;;;;;4.57;3.22;;;8.20;79.90;;;;;;5083301;28;20051;-42
2021/01/15 02:24:58;;;;;;;4.55;3.15;;;8.20;79.90;;;;;;5083309;28;20040;-42
2021/01/15 02:27:52;;;;;;;4.10;3.30;;;8.20;80.00;;;;;;5081535;28;20040;-45
2021/01/15 02:30:40;;;;;;;3.63;3.10;;;8.20;79.90;;;;;;5083408;28;20048;-42
2021/01/15 02:33:18;;;;;;;4.45;3.15;;;8.20;79.90;;;;;;5083681;28;20556;-42
2021/01/15 02:36:11;;;;;;;4.53;3.13;;;8.20;79.90;;;;;;5081743;28;20045;-43
2021/01/15 02:38:47;;;;;;;3.50;2.97;;;8.20;79.90;;;;;;5083314;28;20048;-41
2021/01/15 02:41:21;;;;;;;4.10;3.05;;;8.10;79.90;;;;;;5082552;28;20055;-42
2021/01/15 02:44:00;;;;;;;3.60;3.30;;;8.20;79.90;;;;;;5083664;28;20127;-41
2021/01/15 02:46:44;;;;;;;4.05;3.28;;;8.20;80.60;;;;;;5081693;28;20055;-42
2021/01/15 02:49:11;;;;;;;3.33;3.00;;;8.10;79.90;;;;;;5082051;28;20048;-42
2021/01/15 02:51:40;;;;;;;3.50;3.00;;;8.20;79.90;;;;;;5063769;28;20052;-43
2021/01/15 02:54:06;;;;;;;4.03;3.40;;;8.10;79.90;;;;;;5084091;28;20050;-44
2021/01/15 02:56:32;;;;;;;4.63;3.85;;;8.10;79.90;;;;;;5086491;28;20110;-45
2021/01/15 02:58:58;;;;;;;4.50;3.47;;;8.10;79.90;;;;;;5085205;28;20044;-43
2021/01/15 03:01:24;;;;;;;4.13;3.45;;;8.10;79.90;;;;;;5086992;28;20047;-42
2021/01/15 03:04:22;;;;;;;4.47;3.63;;;8.20;79.90;;;;;;5085555;28;20053;-44
2021/01/15 03:06:53;;;;;;;4.90;3.60;;;8.20;79.90;;;;;;5003825;28;20046;-42
2021/01/15 03:09:20;;;;;;;3.63;3.08;;;8.20;79.90;;;;;;5003053;28;20128;-43
2021/01/15 03:11:47;;;;;;;4.18;3.10;;;8.10;79.90;;;;;;5004899;28;20048;-40
2021/01/15 03:14:16;;;;;;;4.05;3.53;;;8.20;79.90;;;;;;5004288;28;20057;-41
2021/01/15 03:16:43;;;;;;;3.67;2.97;;;8.20;79.90;;;;;;5005065;28;20168;-43
2021/01/15 03:19:09;;;;;;;3.92;3.10;;;8.20;79.90;;;;;;5003556;28;20058;-42
2021/01/15 03:21:39;;;;;;;3.50;3.10;;;8.10;79.90;;;;;;5003289;28;20049;-41
2021/01/15 03:24:06;;;;;;;5.13;3.70;;;8.10;79.90;;;;;;5003068;28;20058;-41
2021/01/15 03:26:32;;;;;;;4.13;3.58;;;8.20;79.90;;;;;;5005125;28;20521;-41
2021/01/15 03:28:59;;;;;;;4.15;3.17;;;8.10;79.90;;;;;;5002742;28;20050;-43
2021/01/15 03:31:25;;;;;;;4.13;3.20;;;8.10;79.90;;;;;;5004654;28;20564;-42
2021/01/15 03:33:50;;;;;;;4.00;3.25;;;8.10;79.90;;;;;;5003492;28;20045;-42
2021/01/15 03:36:16;;;;;;;3.42;3.00;;;8.20;80.00;;;;;;5004264;28;20082;-41
2021/01/15 03:38:43;;;;;;;4.50;3.33;;;8.20;79.90;;;;;;5002117;28;20415;-41
2021/01/15 03:41:09;;;;;;;3.90;3.28;;;8.10;79.90;;;;;;5003878;28;20081;-42
2021/01/15 03:43:35;;;;;;;4.68;3.58;;;8.20;79.90;;;;;;5045639;28;20132;-41
2021/01/15 03:46:02;;;;;;;3.67;3.20;;;8.20;79.90;;;;;;5085949;28;20526;-42
2021/01/15 03:48:27;;;;;;;5.00;3.28;;;8.20;79.90;;;;;;5084856;28;20040;-42
2021/01/15 03:50:53;;;;;;;4.35;3.22;;;8.20;79.90;;;;;;5084772;28;20048;-41
2021/01/15 03:53:20;;;;;;;4.32;3.63;;;8.10;79.90;;;;;;5086216;28;20339;-39
2021/01/15 03:55:47;;;;;;;3.97;3.13;;;8.20;79.90;;;;;;5084466;28;20374;-42
2021/01/15 03:58:13;;;;;;;3.92;3.50;;;8.20;79.90;;;;;;5086348;28;20076;-42
2021/01/15 04:00:38;;;;;;;5.22;3.50;;;8.20;79.90;;;;;;5083554;28;20083;-44
2021/01/15 04:03:05;;;;;;;3.90;3.28;;;8.10;79.90;;;;;;5086014;28;20454;-45
2021/01/15 04:05:32;;;;;;;3.85;3.13;;;8.20;79.90;;;;;;5083858;28;20064;-42
2021/01/15 04:07:58;;;;;;;4.00;3.30;;;8.20;79.90;;;;;;5086479;28;20127;-42
2021/01/15 04:10:24;;;;;;;4.63;3.47;;;8.10;79.90;;;;;;5083910;28;20044;-39
2021/01/15 04:12:50;;;;;;;3.83;3.28;;;8.10;79.90;;;;;;5084948;28;20078;-43
2021/01/15 04:15:17;;;;;;;4.72;3.90;;;8.10;79.90;;;;;;5085329;28;20045;-42
2021/01/15 04:17:43;;;;;;;4.95;3.55;;;8.10;79.90;;;;;;5085019;28;20064;-45
2021/01/15 04:20:11;;;;;;;3.85;3.17;;;8.10;79.90;;;;;;5084835;28;20082;-45
2021/01/15 04:22:39;;;;;;;4.30;3.40;;;8.10;79.90;;;;;;5085472;28;20076;-43
2021/01/15 04:25:06;;;;;;;4.18;3.22;;;8.10;79.90;;;;;;5083632;28;20507;-42
2021/01/15 04:27:34;;;;;;;3.92;3.13;;;8.10;79.90;;;;;;5084470;28;20048;-41
2021/01/15 04:30:01;;;;;;;4.10;3.25;;;8.20;79.90;;;;;;5086565;28;20059;-44
2021/01/15 04:32:28;;;;;;;4.05;3.30;;;8.10;79.90;;;;;;5084241;28;20044;-46
2021/01/15 04:34:54;;;;;;;4.88;3.75;;;8.10;79.90;;;;;;5083871;28;20047;-42
2021/01/15 04:37:19;;;;;;;4.03;3.50;;;8.10;79.90;;;;;;5085514;28;20044;-42
2021/01/15 04:39:45;;;;;;;3.83;3.40;;;8.10;79.90;;;;;;5082833;28;20093;-42
2021/01/15 04:42:15;;;;;;;4.05;2.95;;;8.10;79.90;;;;;;5084566;28;20047;-46
2021/01/15 04:44:42;;;;;;;4.22;3.45;;;8.10;79.90;;;;;;5084826;28;20040;-43
2021/01/15 04:47:08;;;;;;;5.18;3.88;;;8.10;79.90;;;;;;5083703;28;20048;-45
2021/01/15 04:49:38;;;;;;;4.50;3.55;;;8.10;79.90;;;;;;5084232;28;20050;-44
2021/01/15 04:52:09;;;;;;;4.57;3.60;;;8.10;79.80;;;;;;5083022;28;20067;-45
2021/01/15 04:54:37;;;;;;;4.10;3.38;;;8.10;79.90;;;;;;5083521;28;20089;-43
2021/01/15 04:57:07;;;;;;;5.28;3.45;;;8.10;79.80;;;;;;5084848;28;20044;-42
2021/01/15 04:59:38;;;;;;;4.78;3.53;;;8.10;79.90;;;;;;5084085;28;20040;-42
2021/01/15 05:02:08;;;;;;;4.07;3.40;;;8.10;79.80;;;;;;5085832;28;20036;-43
2021/01/15 05:04:34;;;;;;;4.47;3.50;;;8.10;79.90;;;;;;5084255;28;20047;-43
2021/01/15 05:07:04;;;;;;;4.97;3.92;;;8.10;79.90;;;;;;5082579;28;20075;-42
2021/01/15 05:09:38;;;;;;;5.00;3.60;;;8.10;79.80;;;;;;5083757;28;20048;-42
2021/01/15 05:12:09;;;;;;;4.40;3.80;;;8.10;79.90;;;;;;5085886;28;20071;-42
2021/01/15 05:14:35;;;;;;;4.38;3.42;;;8.10;79.80;;;;;;5084127;28;20476;-43
2021/01/15 05:17:03;;;;;;;4.53;3.42;;;8.10;80.50;;;;;;5081585;28;20048;-45
2021/01/15 05:19:29;;;;;;;5.13;3.90;;;8.10;79.80;;;;;;5083909;28;20048;-43
2021/01/15 05:21:55;;;;;;;3.95;3.55;;;8.10;79.90;;;;;;5082755;28;20070;-43
2021/01/15 05:24:21;;;;;;;4.35;3.55;;;8.10;79.90;;;;;;5084414;28;20040;-45
2021/01/15 05:26:47;;;;;;;5.07;3.83;;;8.10;79.80;;;;;;5082622;28;20136;-41
2021/01/15 05:29:14;;;;;;;5.78;3.78;;;8.10;79.80;;;;;;5083216;28;20044;-44
2021/01/15 05:31:54;;;;;;;4.28;3.25;;;8.10;79.90;;;;;;5084530;28;20096;-44
2021/01/15 05:34:21;;;;;;;4.63;3.50;;;8.10;79.90;;;;;;5085015;28;20514;-43
2021/01/15 05:36:47;;;;;;;4.45;3.42;;;8.10;79.80;;;;;;5082419;28;20040;-45
2021/01/15 05:39:23;;;;;;;3.70;3.25;;;8.10;79.80;;;;;;5082978;28;20104;-44
2021/01/15 05:41:50;;;;;;;3.55;3.20;;;8.10;79.80;;;;;;5082686;28;20036;-42
2021/01/15 05:44:30;;;;;;;4.32;3.58;;;8.10;79.90;;;;;;5083531;28;20485;-42
2021/01/15 05:46:58;;;;;;;4.03;3.33;;;8.10;79.80;;;;;;5083683;28;20369;-45
2021/01/15 05:49:24;;;;;;;4.57;3.50;;;8.10;79.90;;;;;;5082060;28;20142;-43
2021/01/15 05:51:50;;;;;;;4.55;3.47;;;8.10;80.50;;;;;;5082794;28;20069;-44
2021/01/15 05:54:31;;;;;;;4.80;3.60;;;8.10;79.80;;;;;;5084387;28;20045;-44
2021/01/15 05:57:01;;;;;;;4.95;3.15;;;8.10;80.50;;;;;;5083775;28;20044;-43
2021/01/15 05:59:27;;;;;;;4.45;3.50;;;8.10;79.90;;;;;;5082276;28;20093;-47
2021/01/15 06:01:56;;;;;;;4.30;3.10;;;8.10;79.90;;;;;;5082485;28;20129;-42
2021/01/15 06:04:54;;;;;;;4.72;3.47;;;8.10;79.90;;;;;;5085182;28;20048;-45
2021/01/15 06:07:20;;;;;;;4.20;3.30;;;8.10;79.80;;;;;;4982153;28;20042;-43
2021/01/15 06:09:48;;;;;;;5.00;3.60;;;8.10;79.80;;;;;;4980675;28;20053;-42
2021/01/15 06:12:17;;;;;;;4.90;3.47;;;8.10;79.90;;;;;;4980904;28;20050;-42
2021/01/15 06:14:49;;;;;;;4.10;3.22;;;8.10;79.80;;;;;;4982557;28;20042;-39
2021/01/15 06:17:17;;;;;;;4.78;3.53;;;8.10;79.80;;;;;;4983111;28;20502;-41
2021/01/15 06:19:44;;;;;;;4.57;3.70;;;8.10;79.80;;;;;;4980401;28;20101;-41
2021/01/15 06:22:26;;;;;;;3.92;3.20;;;8.10;79.80;;;;;;4981306;28;20054;-42
2021/01/15 06:25:15;;;;;;;4.72;3.67;;;8.10;79.80;;;;;;4981362;28;20465;-41
2021/01/15 06:27:42;;;;;;;5.65;4.05;;;8.10;79.80;;;;;;4982165;28;20153;-41
2021/01/15 06:30:15;;;;;;;4.10;3.33;;;8.10;79.80;;;;;;4981662;28;20042;-43
2021/01/15 06:32:42;;;;;;;4.10;3.28;;;8.10;79.80;;;;;;4982060;28;20062;-42
2021/01/15 06:35:21;;;;;;;4.53;3.17;;;8.10;79.90;;;;;;4980621;28;20047;-41
2021/01/15 06:38:05;;;;;;;4.07;3.30;;;8.10;79.80;;;;;;4981441;28;20050;-42
2021/01/15 06:40:50;;;;;;;4.13;3.33;;;8.10;79.80;;;;;;4983810;28;20080;-42
2021/01/15 06:43:19;;;;;;;4.20;3.15;;;8.10;79.80;;;;;;5048881;28;20056;-42
2021/01/15 06:45:46;;;;;;;4.93;4.03;;;8.10;79.80;;;;;;5081336;28;20052;-44
2021/01/15 06:48:16;;;;;;;3.75;3.30;;;8.10;79.90;;;;;;5083218;28;20052;-41
2021/01/15 06:50:44;;;;;;;4.60;3.72;;;8.10;79.80;;;;;;5083414;28;20048;-45
2021/01/15 06:53:23;;;;;;;4.60;3.40;;;8.10;79.90;;;;;;5081738;28;20463;-45
2021/01/15 06:55:51;;;;;;;4.53;3.40;;;8.10;79.90;;;;;;5081947;28;20076;-41
2021/01/15 06:58:25;;;;;;;5.28;3.78;;;8.10;79.90;;;;;;5082813;28;20477;-41
2021/01/15 07:01:16;;;;;;;4.65;3.67;;;8.10;79.80;;;;;;5082133;28;20047;-46
2021/01/15 07:04:09;;;;;;;4.05;3.15;;;8.10;79.90;;;;;;5083363;28;20189;-42
2021/01/15 07:06:36;;;;;;;3.85;3.35;;;8.10;79.90;;;;;;5082608;28;20044;-44
2021/01/15 07:09:05;;;;;;;3.78;3.28;;;8.10;79.80;;;;;;5080072;28;20048;-42
2021/01/15 07:11:31;;;;;;;4.05;3.30;;;8.10;79.90;;;;;;5082408;28;20040;-43
2021/01/15 07:13:59;;;;;;;4.75;3.50;;;8.10;79.90;;;;;;5082901;28;20047;-43
2021/01/15 07:16:33;;;;;;;4.70;3.60;;;8.10;79.90;;;;;;5081271;28;20116;-42
2021/01/15 07:19:04;;;;;;;4.15;3.53;;;8.10;79.80;;;;;;5084736;28;20059;-43
2021/01/15 07:21:37;;;;;;;3.78;3.38;;;8.10;79.90;;;;;;5092356;28;20114;-42
2021/01/15 07:24:09;;;;;;;3.50;3.13;;;8.10;79.80;;;;;;5092228;28;20138;-43
2021/01/15 07:26:41;;;;;;;4.28;3.47;;;8.10;79.80;;;;;;5092018;28;20121;-42
2021/01/15 07:29:10;;;;;;;4.50;3.60;;;8.10;79.80;;;;;;5086210;28;20396;-44
2021/01/15 07:31:40;;;;;;;4.03;3.33;;;8.10;79.80;;;;;;5081704;28;20051;-44
2021/01/15 07:34:13;;;;;;;3.70;3.08;;;8.10;79.90;;;;;;5080919;28;20064;-43
2021/01/15 07:36:40;;;;;;;4.50;3.10;;;8.10;79.80;;;;;;5082941;28;20040;-50
2021/01/15 07:39:13;;;;;;;4.80;3.53;;;8.00;79.80;;;;;;5082627;28;20047;-43
2021/01/15 07:41:55;;;;;;;3.80;3.33;;;8.10;79.80;;;;;;5084498;28;20437;-43
2021/01/15 07:44:26;;;;;;;3.60;3.10;;;8.10;79.80;;;;;;5085571;28;20060;-42
2021/01/15 07:46:57;;;;;;;4.18;3.13;;;8.10;79.90;;;;;;5083921;28;20052;-42
2021/01/15 07:49:23;;;;;;;4.00;3.00;;;8.10;79.90;;;;;;5087535;28;20052;-43
2021/01/15 07:52:05;;;;;;;4.60;3.45;;;8.10;79.80;;;;;;5095011;28;20048;-45
2021/01/15 07:54:46;;;;;;;4.15;3.47;;;8.10;79.80;;;;;;5095277;28;20549;-45
2021/01/15 07:57:16;;;;;;;4.25;3.35;;;8.10;79.80;;;;;;5095762;28;20055;-40
2021/01/15 07:59:42;;;;;;;3.53;3.17;;;8.10;79.80;;;;;;5095072;28;20554;-47
2021/01/15 08:02:08;;;;;;;3.20;2.90;;;8.10;79.80;;;;;;5094750;28;20123;-42
2021/01/15 08:04:34;;;;;;;3.22;2.85;;;8.10;79.80;;;;;;5095329;28;20400;-39
2021/01/15 08:07:18;;;;;;;4.07;3.08;;;8.10;79.90;;;;;;5090119;28;20040;-43
2021/01/15 08:09:44;;;;;;;3.58;2.90;;;8.10;79.80;;;;;;5085804;28;20039;-40
2021/01/15 08:12:10;;;;;;;3.35;2.92;;;8.10;79.80;;;;;;5084336;28;20503;-46
2021/01/15 08:14:35;;;;;;;4.00;3.13;;;8.10;79.80;;;;;;5084487;28;20399;-43
2021/01/15 08:17:10;;;;;;;3.08;2.70;;;8.10;79.80;;;;;;5086100;28;20059;-44
2021/01/15 08:19:37;;;;;;;4.47;3.30;;;8.10;79.80;;;;;;5083466;28;20071;-45
2021/01/15 08:22:08;;;;;;;4.57;3.00;;;8.00;79.80;;;;;;5084788;28;20040;-43
2021/01/15 08:24:48;;;;;;;3.72;2.95;;;8.10;79.80;;;;;;5084534;28;20097;-45
2021/01/15 08:27:21;;;;;;;3.33;2.72;;;8.10;79.80;;;;;;5084458;28;20412;-43
2021/01/15 08:29:49;;;;;;;3.22;2.75;;;8.00;79.70;;;;;;5085486;28;20068;-45
2021/01/15 08:32:15;;;;;;;3.88;3.05;;;8.00;79.80;;;;;;5085289;28;20094;-46
2021/01/15 08:34:41;;;;;;;3.95;2.90;;;8.00;79.70;;;;;;5084446;28;20044;-42
2021/01/15 08:37:09;;;;;;;3.80;3.00;;;8.10;79.80;;;;;;5085156;28;20040;-44
2021/01/15 08:39:44;;;;;;;4.25;3.42;;;8.10;80.40;;;;;;5077638;28;20051;-41
2021/01/15 08:42:10;;;;;;;3.28;2.92;;;8.10;79.80;;;;;;5074364;28;20112;-46
2021/01/15 08:44:37;;;;;;;5.32;3.03;;;8.10;79.80;;;;;;5074401;28;20144;-43
2021/01/15 08:47:04;;;;;;;3.30;2.92;;;8.10;79.80;;;;;;5074680;28;20052;-42
2021/01/15 08:49:30;;;;;;;2.95;2.60;;;8.10;79.80;;;;;;5077010;28;20498;-42
2021/01/15 08:51:59;;;;;;;3.30;2.72;;;8.10;79.80;;;;;;5084777;28;20500;-41
2021/01/15 08:54:27;;;;;;;3.10;2.58;;;8.10;79.80;;;;;;5083976;28;20068;-42
2021/01/15 08:56:53;;;;;;;3.22;2.80;;;8.10;79.80;;;;;;5082558;28;20641;-42
2021/01/15 08:59:26;;;;;;;3.63;2.83;;;8.10;79.80;;;;;;5085010;28;20044;-41
2021/01/15 09:02:05;;;;;;;3.60;2.70;;;8.10;79.80;;;;;;5085111;28;20079;-43
2021/01/15 09:04:33;;;;;;;3.45;2.78;;;8.10;79.80;;;;;;5084859;28;20040;-42
2021/01/15 09:07:01;;;;;;;4.20;2.95;;;8.10;79.80;;;;;;5083308;28;20036;-43
2021/01/15 09:09:30;;;;;;;3.88;2.88;;;8.10;79.80;;;;;;5083639;28;20122;-44
2021/01/15 09:12:09;;;;;;;3.20;2.78;;;8.10;79.80;;;;;;5084423;28;20107;-46
2021/01/15 09:14:38;;;;;;;3.22;2.70;;;8.10;79.80;;;;;;5081938;28;20050;-43
2021/01/15 09:17:07;;;;;;;4.18;2.90;;;8.10;79.80;;;;;;5092392;28;20040;-42
2021/01/15 09:19:34;;;;;;;3.22;2.53;;;8.00;79.70;;;;;;5094076;28;20097;-43
2021/01/15 09:22:02;;;;;;;4.00;3.20;;;8.10;79.80;;;;;;5092414;28;20109;-41
2021/01/15 09:24:32;;;;;;;4.32;3.25;;;8.10;79.80;;;;;;5076597;28;20041;-41
2021/01/15 09:26:59;;;;;;;3.83;3.05;;;8.10;79.80;;;;;;5073783;28;20052;-42
2021/01/15 09:29:25;;;;;;;4.40;3.03;;;8.00;79.70;;;;;;5073817;28;20450;-43
2021/01/15 09:31:51;;;;;;;3.35;2.67;;;8.10;79.80;;;;;;5073613;28;20503;-44
2021/01/15 09:34:18;;;;;;;3.97;2.90;;;8.00;79.70;;;;;;5073769;28;20049;-44
2021/01/15 09:36:46;;;;;;;3.20;2.63;;;8.10;79.80;;;;;;5073457;28;20587;-42
2021/01/15 09:39:13;;;;;;;3.25;2.60;;;8.10;79.80;;;;;;5073580;28;20504;-43
2021/01/15 09:41:43;;;;;;;3.03;2.42;;;8.10;79.90;;;;;;5073366;28;20059;-39
2021/01/15 09:44:09;;;;;;;3.83;2.72;;;8.10;79.70;;;;;;5073465;28;20052;-40
2021/01/15 09:46:34;;;;;;;4.20;3.00;;;8.00;79.70;;;;;;5073283;28;20420;-40
2021/01/15 09:49:00;;;;;;;3.85;2.88;;;8.00;79.70;;;;;;5073340;28;20123;-39
2021/01/15 09:51:27;;;;;;;3.90;3.03;;;8.00;79.70;;;;;;5073263;28;20466;-42
2021/01/15 09:53:55;;;;;;;3.75;2.92;;;8.10;79.80;;;;;;5073556;28;20071;-40
2021/01/15 09:56:33;;;;;;;4.82;2.97;;;8.10;79.70;;;;;;5073253;28;20098;-41
2021/01/15 09:59:00;;;;;;;3.60;2.70;;;8.10;79.80;;;;;;5073453;28;20110;-44
2021/01/15 10:01:27;;;;;;;3.28;2.63;;;8.10;79.70;;;;;;5073240;28;20059;-41
2021/01/15 10:03:55;;;;;;;3.67;2.85;;;8.10;79.70;;;;;;5072345;28;20105;-40
2021/01/15 10:06:22;;;;;;;3.83;2.90;;;8.10;79.70;;;;;;5073309;28;20056;-40
2021/01/15 10:08:49;;;;;;;4.10;2.90;;;8.00;79.60;;;;;;5073049;28;20155;-42
2021/01/15 10:11:26;;;;;;;3.55;2.80;;;8.10;79.70;;;;;;5072906;28;20507;-39
2021/01/15 10:14:13;;;;;;;2.67;2.35;;;8.10;79.70;;;;;;5072666;28;20496;-43
2021/01/15 10:16:51;;;;;;;4.55;2.55;;;8.10;79.70;;;;;;5076332;28;20047;-41
2021/01/15 10:19:18;;;;;;;3.80;2.85;;;8.10;79.70;;;;;;5093188;28;20044;-42
2021/01/15 10:21:45;;;;;;;3.72;2.47;;;8.00;79.60;;;;;;5092641;28;20399;-42
2021/01/15 10:24:12;;;;;;;3.25;2.72;;;8.00;79.60;;;;;;5092595;28;20079;-42
2021/01/15 10:26:39;;;;;;;3.75;3.00;;;8.00;79.60;;;;;;5085132;28;20119;-39
2021/01/15 10:29:12;;;;;;;2.95;2.55;;;8.00;79.60;;;;;;5065847;28;20438;-40
2021/01/15 10:31:56;;;;;;;3.22;2.60;;;8.00;79.60;;;;;;5082545;28;20048;-41
2021/01/15 10:34:23;;;;;;;3.63;2.70;;;8.00;79.60;;;;;;5082737;28;20055;-39
2021/01/15 10:36:50;;;;;;;2.95;2.65;;;8.00;79.60;;;;;;5085342;28;20075;-40
2021/01/15 10:39:16;;;;;;;3.75;2.80;;;8.10;79.60;;;;;;5082309;28;20472;-42
2021/01/15 10:41:47;;;;;;;5.13;2.95;;;8.00;79.60;;;;;;5078252;28;20118;-39
2021/01/15 10:44:16;;;;;;;3.70;2.90;;;8.00;79.60;;;;;;5076503;28;20079;-40
2021/01/15 10:46:47;;;;;;;4.13;2.70;;;8.10;79.60;;;;;;5060424;28;20056;-41
2021/01/15 10:49:23;;;;;;;3.45;2.72;;;8.00;79.50;;;;;;5072738;28;20755;-40
2021/01/15 10:51:49;;;;;;;;;;;8.10;79.60;;;;;;5079903;28;20159;-45
2021/01/15 10:54:16;;;;;;;3.50;2.70;;;8.00;79.60;;;;;;5085723;28;19924;-44
2021/01/15 10:56:45;;;;;;;3.75;2.65;;;8.00;79.60;;;;;;5076441;28;20047;-44
2021/01/15 10:59:11;;;;;;;4.68;3.30;;;8.10;79.60;;;;;;5075143;28;20105;-44
2021/01/15 11:01:44;;;;;;;3.00;2.63;;;8.00;79.60;;;;;;5077091;28;20055;-43
2021/01/15 11:04:11;;;;;;;4.53;3.30;;;8.00;79.50;;;;;;5077169;28;20447;-45
2021/01/15 11:06:45;;;;;;;3.35;2.80;;;8.00;79.50;;;;;;5076466;28;20056;-44
2021/01/15 11:09:22;;;;;;;3.20;2.58;;;8.10;79.60;;;;;;5075344;28;20139;-44
2021/01/15 11:11:51;;;;;;;3.65;2.70;;;8.10;79.60;;;;;;5075421;28;20584;-45
2021/01/15 11:14:17;;;;;;;3.83;2.78;;;8.10;79.60;;;;;;5076750;28;20427;-48
2021/01/15 11:16:43;;;;;;;3.50;2.80;;;8.00;79.50;;;;;;5084175;28;20044;-50
2021/01/15 11:19:10;;;;;;;4.82;3.20;;;8.00;79.50;;;;;;5090520;28;20079;-44
2021/01/15 11:21:35;;;;;;;3.00;2.45;;;8.10;79.60;;;;;;5073429;28;20044;-44
2021/01/15 11:24:01;;;;;;;3.28;2.42;;;8.10;79.60;;;;;;5062732;28;20059;-53
2021/01/15 11:26:28;;;;;;;3.85;2.80;;;8.00;79.50;;;;;;5080472;28;20048;-50
2021/01/15 11:28:56;;;;;;;3.47;3.05;;;8.10;79.60;;;;;;5090282;28;20044;-50
2021/01/15 11:31:26;;;;;;;4.47;3.22;;;8.00;79.50;;;;;;5072461;28;20052;-46
2021/01/15 11:33:53;;;;;;;5.63;3.30;;;8.00;79.50;;;;;;5088768;28;20075;-47
2021/01/15 11:36:19;;;;;;;3.50;2.88;;;8.10;79.60;;;;;;5090967;28;20048;-45
2021/01/15 11:38:46;;;;;;;3.40;2.80;;;8.10;79.60;;;;;;5090561;28;20052;-47
2021/01/15 11:41:13;;;;;;;5.40;3.30;;;8.00;79.50;;;;;;5088603;28;20048;-48
2021/01/15 11:43:39;;;;;;;4.03;2.85;;;8.00;79.50;;;;;;5075608;28;20052;-45
2021/01/15 11:46:05;;;;;;;4.22;2.92;;;8.10;79.50;;;;;;5080629;28;20077;-46
2021/01/15 11:48:32;;;;;;;4.53;3.08;;;8.10;79.50;;;;;;5079964;28;20063;-48
2021/01/15 11:50:58;;;;;;;3.63;2.88;;;8.10;79.50;;;;;;5080020;28;20045;-48
2021/01/15 11:53:24;;;;;;;3.38;2.58;;;8.10;79.60;;;;;;5078698;28;20420;-48
2021/01/15 11:55:52;;;;;;;2.92;2.63;;;8.10;79.60;;;;;;5077701;28;20060;-46
2021/01/15 11:58:18;;;;;;;3.63;2.85;;;8.10;79.60;;;;;;5078748;28;20048;-49
2021/01/15 12:00:44;;;;;;;4.15;2.80;;;8.00;79.40;;;;;;5078674;28;20576;-47
2021/01/15 12:03:10;;;;;;;4.20;3.05;;;8.10;79.50;;;;;;5076451;28;20051;-46
2021/01/15 12:05:43;;;;;;;3.95;3.20;;;8.00;79.50;;;;;;5080916;28;20126;-46
2021/01/15 12:08:09;;;;;;;4.78;3.42;;;8.10;79.50;;;;;;5079467;28;20052;-45
2021/01/15 12:10:35;;;;;;;3.28;2.63;;;8.10;79.50;;;;;;5079878;28;20046;-48
2021/01/15 12:13:01;;;;;;;3.63;2.78;;;8.10;79.50;;;;;;5089745;28;20054;-46
2021/01/15 12:15:26;;;;;;;3.80;3.30;;;8.10;79.50;;;;;;5083132;28;20415;-43
2021/01/15 12:17:52;;;;;;;4.30;2.83;;;8.10;79.50;;;;;;5080226;28;20828;-49
2021/01/15 12:20:18;;;;;;;3.38;2.72;;;8.10;79.50;;;;;;5080633;28;20134;-50
2021/01/15 12:22:44;;;;;;;5.13;3.50;;;8.10;79.50;;;;;;5078513;28;20052;-48
2021/01/15 12:25:11;;;;;;;4.22;3.28;;;8.10;79.50;;;;;;5080554;28;20048;-47
2021/01/15 12:27:37;;;;;;;3.85;3.45;;;8.10;79.50;;;;;;5080924;28;20050;-47
2021/01/15 12:30:07;;;;;;;4.88;3.05;;;8.10;79.50;;;;;;5078467;28;20044;-49
2021/01/15 12:32:33;;;;;;;3.28;2.80;;;8.00;79.40;;;;;;5065646;28;20036;-46
2021/01/15 12:34:59;;;;;;;4.03;3.25;;;8.10;79.40;;;;;;5081832;28;20048;-45
2021/01/15 12:37:28;;;;;;;3.60;3.05;;;8.00;79.40;;;;;;5083791;28;20046;-45
2021/01/15 12:39:55;;;;;;;3.75;2.78;;;8.00;79.40;;;;;;5082836;28;20117;-49
2021/01/15 12:42:21;;;;;;;3.35;3.03;;;8.00;79.40;;;;;;5084242;28;20072;-48
2021/01/15 12:44:47;;;;;;;3.80;2.80;;;8.10;79.40;;;;;;5080554;28;20451;-51
2021/01/15 12:47:13;;;;;;;4.05;3.25;;;8.10;79.40;;;;;;5087905;28;20048;-52
2021/01/15 12:49:39;;;;;;;4.22;3.15;;;8.10;79.40;;;;;;5084379;28;20435;-51
2021/01/15 12:52:05;;;;;;;3.58;3.03;;;8.10;79.40;;;;;;5084062;28;20048;-52
2021/01/15 12:54:31;;;;;;;4.93;3.42;;;8.10;79.40;;;;;;5085335;28;20131;-53
2021/01/15 12:56:57;;;;;;;4.45;3.33;;;8.10;79.40;;;;;;5085057;28;20050;-52
2021/01/15 12:59:22;;;;;;;4.70;3.30;;;8.10;80.00;;;;;;5084582;28;20040;-51
2021/01/15 13:01:48;;;;;;;3.65;3.10;;;8.10;79.40;;;;;;5084642;28;20075;-52
2021/01/15 13:04:14;;;;;;;4.47;3.72;;;8.00;79.30;;;;;;5083102;28;20491;-50
2021/01/15 13:06:40;;;;;;;4.20;2.78;;;8.00;79.30;;;;;;5084234;28;20532;-54
2021/01/15 13:09:10;;;;;;;3.50;2.70;;;8.10;79.30;;;;;;5084481;28;20114;-54